Time,TemperatureF,DewpointF,PressureIn,WindDirection,WindDirectionDegrees,WindSpeedMPH,WindSpeedGustMPH,Humidity,HourlyPrecipIn,Conditions,Clouds,dailyrainin,SolarRadiationWatts/m^2,SoftwareType,DateUTC
2013-05-14 00:04:00,39.0,34.0,30.15,NNW,343,0.0,0.0,82,0.00,,,0.00,0,Wunderground v.1.15,2013-05-14 04:04:00,
2013-05-14 00:10:00,38.9,33.9,30.16,NNW,343,0.0,0.0,82,0.00,,,0.00,0,Wunderground v.1.15,2013-05-14 04:10:00,
2013-05-14 00:14:00,38.7,33.7,30.16,NNW,343,0.0,0.0,82,0.00,,,0.00,0,Wunderground v.1.15,2013-05-14 04:14:00,
2013-05-14 00:19:00,38.5,33.8,30.16,NNW,343,0.0,0.0,83,0.00,,,0.00,0,Wunderground v.1.15,2013-05-14 04:19:00,
2013-05-14 00:24:00,38.4,34.0,30.16,NNW,343,0.0,0.0,84,0.00,,,0.00,0,Wunderground v.1.15,2013-05-14 04:24:00,
2013-05-14 00:29:00,38.2,33.8,30.16,NNW,343,0.0,0.0,84,0.00,,,0.00,0,Wunderground v.1.15,2013-05-14 04:29:00,
2013-05-14 00:39:00,37.9,33.8,30.16,NNW,343,0.0,0.0,85,0.00,,,0.00,0,Wunderground v.1.15,2013-05-14 04:39:00,
2013-05-14 00:49:00,37.6,33.8,30.16,NNW,343,0.0,0.0,86,0.00,,,0.00,0,Wunderground v.1.15,2013-05-14 04:49:00,
2013-05-14 01:00:00,37.4,33.9,30.16,NNW,343,0.0,0.0,87,0.00,,,0.00,0,Wunderground v.1.15,2013-05-14 05:00:00,
2013-05-14 01:09:00,37.0,33.5,30.16,NNW,343,0.0,0.0,87,0.00,,,0.00,0,Wunderground v.1.15,2013-05-14 05:09:00,
2013-05-14 01:14:00,36.8,33.3,30.16,NNW,343,0.0,0.0,87,0.00,,,0.00,0,Wunderground v.1.15,2013-05-14 05:14:00,
2013-05-14 01:25:00,36.5,33.3,30.16,NNW,343,0.0,0.0,88,0.00,,,0.00,0,Wunderground v.1.15,2013-05-14 05:25:00,
2013-05-14 01:34:00,36.1,33.2,30.16,NNW,343,0.0,0.0,89,0.00,,,0.00,0,Wunderground v.1.15,2013-05-14 05:34:00,
2013-05-14 01:39:00,36.0,33.1,30.16,NNW,343,0.0,0.0,89,0.00,,,0.00,0,Wunderground v.1.15,2013-05-14 05:39:00,
2013-05-14 01:44:00,35.9,33.0,30.16,NNW,343,0.0,0.0,89,0.00,,,0.00,0,Wunderground v.1.15,2013-05-14 05:44:00,
2013-05-14 01:50:00,35.8,32.9,30.16,NNW,343,0.0,0.0,89,0.00,,,0.00,0,Wunderground v.1.15,2013-05-14 05:50:00,
2013-05-14 01:59:00,35.5,32.9,30.15,NNW,343,0.0,0.0,90,0.00,,,0.00,0,Wunderground v.1.15,2013-05-14 05:59:00,
2013-05-14 02:04:00,35.3,32.7,30.16,NNW,343,0.0,0.0,90,0.00,,,0.00,0,Wunderground v.1.15,2013-05-14 06:04:00,
2013-05-14 02:14:00,35.1,32.5,30.16,NNW,343,0.0,0.0,90,0.00,,,0.00,0,Wunderground v.1.15,2013-05-14 06:14:00,
2013-05-14 02:19:00,35.0,32.4,30.16,NNW,343,0.0,0.0,90,0.00,,,0.00,0,Wunderground v.1.15,2013-05-14 06:19:00,
2013-05-14 02:29:00,34.7,32.3,30.16,NNW,343,0.0,0.0,91,0.00,,,0.00,0,Wunderground v.1.15,2013-05-14 06:29:00,
2013-05-14 02:39:00,34.4,32.0,30.16,NNW,343,0.0,0.0,91,0.00,,,0.00,0,Wunderground v.1.15,2013-05-14 06:39:00,
2013-05-14 02:45:00,34.3,31.9,30.16,NNW,343,0.0,0.0,91,0.00,,,0.00,0,Wunderground v.1.15,2013-05-14 06:45:00,
2013-05-14 02:54:00,34.0,31.9,30.16,NNW,343,0.0,0.0,92,0.00,,,0.00,0,Wunderground v.1.15,2013-05-14 06:54:00,
2013-05-14 02:59:00,33.9,31.8,30.16,NNW,343,0.0,0.0,92,0.00,,,0.00,0,Wunderground v.1.15,2013-05-14 06:59:00,
2013-05-14 03:09:00,33.8,31.7,30.16,NNW,343,0.0,0.0,92,0.00,,,0.00,0,Wunderground v.1.15,2013-05-14 07:09:00,
2013-05-14 03:24:00,33.5,31.4,30.16,NNW,343,0.0,0.0,92,0.00,,,0.00,0,Wunderground v.1.15,2013-05-14 07:24:00,
2013-05-14 03:29:00,33.4,31.3,30.16,NNW,343,0.0,0.0,92,0.00,,,0.00,0,Wunderground v.1.15,2013-05-14 07:29:00,
2013-05-14 03:40:00,33.1,31.3,30.16,NNW,343,0.0,0.0,93,0.00,,,0.00,0,Wunderground v.1.15,2013-05-14 07:40:00,
2013-05-14 03:49:00,32.9,31.1,30.16,NNW,343,0.0,0.0,93,0.00,,,0.00,0,Wunderground v.1.15,2013-05-14 07:49:00,
2013-05-14 03:54:00,32.8,31.0,30.16,NNW,343,0.0,0.0,93,0.00,,,0.00,0,Wunderground v.1.15,2013-05-14 07:54:00,
2013-05-14 03:59:00,32.7,30.9,30.15,NNW,343,0.0,0.0,93,0.00,,,0.00,0,Wunderground v.1.15,2013-05-14 07:59:00,
2013-05-14 04:09:00,32.5,30.7,30.16,NNW,343,0.0,0.0,93,0.00,,,0.00,0,Wunderground v.1.15,2013-05-14 08:09:00,
2013-05-14 04:14:00,32.4,30.6,30.16,NNW,343,0.0,0.0,93,0.00,,,0.00,0,Wunderground v.1.15,2013-05-14 08:14:00,
2013-05-14 04:20:00,32.3,30.5,30.16,NNW,343,0.0,0.0,93,0.00,,,0.00,0,Wunderground v.1.15,2013-05-14 08:20:00,
2013-05-14 04:29:00,32.1,30.3,30.16,NNW,343,0.0,0.0,93,0.00,,,0.00,0,Wunderground v.1.15,2013-05-14 08:29:00,
2013-05-14 04:40:00,32.0,30.2,30.16,NNW,343,0.0,0.0,93,0.00,,,0.00,0,Wunderground v.1.15,2013-05-14 08:40:00,
2013-05-14 04:45:00,32.0,30.2,30.16,NNW,343,0.0,0.0,93,0.00,,,0.00,0,Wunderground v.1.15,2013-05-14 08:45:00,
2013-05-14 04:54:00,31.9,30.1,30.16,NNW,343,0.0,0.0,93,0.00,,,0.00,0,Wunderground v.1.15,2013-05-14 08:54:00,
2013-05-14 04:59:00,31.8,30.3,30.16,NNW,343,0.0,0.0,94,0.00,,,0.00,0,Wunderground v.1.15,2013-05-14 08:59:00,
2013-05-14 05:09:00,31.6,30.1,30.16,NNW,343,0.0,0.0,94,0.00,,,0.00,0,Wunderground v.1.15,2013-05-14 09:09:00,
2013-05-14 05:19:00,31.6,30.1,30.16,NNW,343,0.0,0.0,94,0.00,,,0.00,0,Wunderground v.1.15,2013-05-14 09:19:00,
2013-05-14 05:24:00,31.6,30.1,30.16,NNW,343,0.0,0.0,94,0.00,,,0.00,0,Wunderground v.1.15,2013-05-14 09:24:00,
2013-05-14 05:30:00,31.5,30.0,30.16,NNW,343,0.0,0.0,94,0.00,,,0.00,0,Wunderground v.1.15,2013-05-14 09:30:00,
2013-05-14 05:39:00,31.5,30.0,30.16,NNW,343,0.0,0.0,94,0.00,,,0.00,0,Wunderground v.1.15,2013-05-14 09:39:00,
2013-05-14 05:44:00,31.4,29.9,30.16,NNW,343,0.0,0.0,94,0.00,,,0.00,0,Wunderground v.1.15,2013-05-14 09:44:00,
2013-05-14 05:50:00,31.4,29.9,30.16,NNW,343,0.0,0.0,94,0.00,,,0.00,0,Wunderground v.1.15,2013-05-14 09:50:00,
2013-05-14 05:59:00,31.4,29.9,30.16,NNW,343,0.0,0.0,94,0.00,,,0.00,5,Wunderground v.1.15,2013-05-14 09:59:00,
2013-05-14 06:10:00,31.3,29.8,30.17,NNW,343,0.0,0.0,94,0.00,,,0.00,7,Wunderground v.1.15,2013-05-14 10:10:00,
2013-05-14 06:19:00,31.4,29.9,30.17,NNW,343,0.0,0.0,94,0.00,,,0.00,12,Wunderground v.1.15,2013-05-14 10:19:00,
2013-05-14 06:24:00,31.5,30.2,30.17,NNW,343,0.0,0.0,95,0.00,,,0.00,14,Wunderground v.1.15,2013-05-14 10:24:00,
2013-05-14 06:34:00,31.7,30.4,30.17,NNW,343,0.0,0.0,95,0.00,,,0.00,18,Wunderground v.1.15,2013-05-14 10:34:00,
2013-05-14 06:39:00,32.0,30.7,30.18,NNW,343,0.0,0.0,95,0.00,,,0.00,19,Wunderground v.1.15,2013-05-14 10:39:00,
2013-05-14 06:45:00,32.3,31.3,30.18,NNW,343,0.0,0.0,96,0.00,,,0.00,23,Wunderground v.1.15,2013-05-14 10:45:00,
2013-05-14 06:54:00,32.6,31.6,30.18,NNW,343,0.0,0.0,96,0.00,,,0.00,28,Wunderground v.1.15,2013-05-14 10:54:00,
2013-05-14 07:00:00,32.9,32.9,30.18,NNW,343,0.0,0.0,100,0.00,,,0.00,30,Wunderground v.1.15,2013-05-14 11:00:00,
2013-05-14 07:09:00,33.5,32.5,30.18,NNW,343,0.0,0.0,96,0.00,,,0.00,35,Wunderground v.1.15,2013-05-14 11:09:00,
2013-05-14 07:19:00,34.5,33.5,30.18,NNW,343,0.0,0.0,96,0.00,,,0.00,40,Wunderground v.1.15,2013-05-14 11:19:00,
2013-05-14 07:25:00,35.3,34.3,30.18,SW,231,0.0,0.0,96,0.00,,,0.00,40,Wunderground v.1.15,2013-05-14 11:25:00,
2013-05-14 07:35:00,36.6,35.3,30.18,SW,231,0.0,0.0,95,0.00,,,0.00,46,Wunderground v.1.15,2013-05-14 11:35:00,
2013-05-14 07:44:00,37.7,35.9,30.18,WNW,297,0.0,3.0,93,0.00,,,0.00,51,Wunderground v.1.15,2013-05-14 11:44:00,
2013-05-14 07:50:00,38.9,35.1,30.18,WNW,294,1.0,3.0,86,0.00,,,0.00,53,Wunderground v.1.15,2013-05-14 11:50:00,
2013-05-14 07:59:00,41.2,34.2,30.19,WNW,301,1.0,1.0,76,0.00,,,0.00,56,Wunderground v.1.15,2013-05-14 11:59:00,
2013-05-14 08:09:00,42.8,34.4,30.19,WNW,291,1.0,1.0,72,0.00,,,0.00,60,Wunderground v.1.15,2013-05-14 12:09:00,
2013-05-14 08:20:00,44.0,33.4,30.19,WNW,289,1.0,1.0,66,0.00,,,0.00,107,Wunderground v.1.15,2013-05-14 12:20:00,
2013-05-14 08:29:00,45.0,33.5,30.18,WNW,290,1.0,1.0,64,0.00,,,0.00,429,Wunderground v.1.15,2013-05-14 12:29:00,
2013-05-14 08:34:00,45.4,32.7,30.18,WNW,283,1.0,2.0,61,0.00,,,0.00,503,Wunderground v.1.15,2013-05-14 12:34:00,
2013-05-14 08:39:00,45.8,32.7,30.18,NNE,16,1.0,3.0,60,0.00,,,0.00,520,Wunderground v.1.15,2013-05-14 12:39:00,
2013-05-14 08:54:00,48.1,33.6,30.19,WSW,248,2.0,2.0,57,0.00,,,0.00,568,Wunderground v.1.15,2013-05-14 12:54:00,
2013-05-14 09:04:00,49.0,32.1,30.19,WNW,286,2.0,2.0,52,0.00,,,0.00,598,Wunderground v.1.15,2013-05-14 13:04:00,
2013-05-14 09:15:00,49.4,31.5,30.19,East,96,1.0,3.0,50,0.00,,,0.00,626,Wunderground v.1.15,2013-05-14 13:15:00,
2013-05-14 09:25:00,49.6,29.6,30.19,WNW,292,3.0,3.0,46,0.00,,,0.00,656,Wunderground v.1.15,2013-05-14 13:25:00,
2013-05-14 09:35:00,49.7,31.3,30.18,NW,319,2.0,5.0,49,0.00,,,0.00,686,Wunderground v.1.15,2013-05-14 13:35:00,
2013-05-14 09:44:00,50.1,30.6,30.18,NW,311,2.0,3.0,47,0.00,,,0.00,715,Wunderground v.1.15,2013-05-14 13:44:00,
2013-05-14 09:49:00,49.9,31.0,30.18,West,278,2.0,5.0,48,0.00,,,0.00,731,Wunderground v.1.15,2013-05-14 13:49:00,
2013-05-14 10:00:00,51.2,31.1,30.18,NE,47,3.0,3.0,46,0.00,,,0.00,761,Wunderground v.1.15,2013-05-14 14:00:00,
2013-05-14 10:09:00,50.6,30.6,30.18,NNW,327,2.0,3.0,46,0.00,,,0.00,780,Wunderground v.1.15,2013-05-14 14:09:00,
2013-05-14 10:14:00,50.8,30.7,30.18,NW,319,3.0,5.0,46,0.00,,,0.00,795,Wunderground v.1.15,2013-05-14 14:14:00,
2013-05-14 10:20:00,50.7,29.0,30.17,SW,222,3.0,3.0,43,0.00,,,0.00,803,Wunderground v.1.15,2013-05-14 14:20:00,
2013-05-14 10:34:00,51.2,32.2,30.17,WNW,286,2.0,4.0,48,0.00,,,0.00,842,Wunderground v.1.15,2013-05-14 14:34:00,
2013-05-14 10:45:00,52.1,30.8,30.17,SSE,158,3.0,3.0,44,0.00,,,0.00,860,Wunderground v.1.15,2013-05-14 14:45:00,
2013-05-14 10:54:00,52.5,32.8,30.16,West,262,2.0,2.0,47,0.00,,,0.00,884,Wunderground v.1.15,2013-05-14 14:54:00,
2013-05-14 10:59:00,52.6,30.1,30.16,SW,230,3.0,3.0,42,0.00,,,0.00,889,Wunderground v.1.15,2013-05-14 14:59:00,
2013-05-14 11:10:00,52.4,29.4,30.16,WNW,298,3.0,3.0,41,0.00,,,0.00,909,Wunderground v.1.15,2013-05-14 15:10:00,
2013-05-14 11:19:00,52.8,30.3,30.16,WNW,284,3.0,9.0,42,0.00,,,0.00,921,Wunderground v.1.15,2013-05-14 15:19:00,
2013-05-14 11:24:00,53.0,31.6,30.16,NW,304,4.0,9.0,44,0.00,,,0.00,932,Wunderground v.1.15,2013-05-14 15:24:00,
2013-05-14 11:30:00,53.0,31.1,30.16,SW,222,3.0,4.0,43,0.00,,,0.00,935,Wunderground v.1.15,2013-05-14 15:30:00,
2013-05-14 11:35:00,53.0,30.5,30.15,NW,313,2.0,4.0,42,0.00,,,0.00,944,Wunderground v.1.15,2013-05-14 15:35:00,
2013-05-14 11:44:00,53.9,31.3,30.15,WNW,291,3.0,3.0,42,0.00,,,0.00,958,Wunderground v.1.15,2013-05-14 15:44:00,
2013-05-14 11:50:00,53.8,28.8,30.15,SW,233,3.0,4.0,38,0.00,,,0.00,962,Wunderground v.1.15,2013-05-14 15:50:00,
2013-05-14 11:59:00,53.5,30.4,30.15,WNW,297,4.0,4.0,41,0.00,,,0.00,972,Wunderground v.1.15,2013-05-14 15:59:00,
2013-05-14 12:04:00,54.2,32.2,30.14,NW,309,3.0,4.0,43,0.00,,,0.00,976,Wunderground v.1.15,2013-05-14 16:04:00,
2013-05-14 12:10:00,54.7,30.2,30.14,South,187,3.0,3.0,39,0.00,,,0.00,979,Wunderground v.1.15,2013-05-14 16:10:00,
2013-05-14 12:19:00,55.1,34.7,30.15,WNW,289,4.0,7.0,46,0.00,,,0.00,990,Wunderground v.1.15,2013-05-14 16:19:00,
2013-05-14 12:25:00,55.1,30.6,30.14,NW,312,4.0,7.0,39,0.00,,,0.00,1013,Wunderground v.1.15,2013-05-14 16:25:00,
2013-05-14 12:35:00,54.8,28.3,30.14,SW,215,3.0,4.0,36,0.00,,,0.00,986,Wunderground v.1.15,2013-05-14 16:35:00,
2013-05-14 12:45:00,54.6,29.5,30.15,WSW,249,4.0,5.0,38,0.00,,,0.00,928,Wunderground v.1.15,2013-05-14 16:45:00,
2013-05-14 12:54:00,55.6,32.2,30.14,WNW,283,3.0,9.0,41,0.00,,,0.00,902,Wunderground v.1.15,2013-05-14 16:54:00,
2013-05-14 13:04:00,56.0,32.0,30.14,WNW,297,3.0,4.0,40,0.00,,,0.00,984,Wunderground v.1.15,2013-05-14 17:04:00,
2013-05-14 13:15:00,56.6,29.9,30.14,WNW,288,3.0,5.0,36,0.00,,,0.00,997,Wunderground v.1.15,2013-05-14 17:15:00,
2013-05-14 13:25:00,57.0,33.5,30.13,WNW,300,3.0,4.0,41,0.00,,,0.00,868,Wunderground v.1.15,2013-05-14 17:25:00,
2013-05-14 13:35:00,57.0,30.3,30.14,NNW,344,2.0,2.0,36,0.00,,,0.00,633,Wunderground v.1.15,2013-05-14 17:35:00,
2013-05-14 13:44:00,56.5,29.8,30.13,South,181,1.0,6.0,36,0.00,,,0.00,555,Wunderground v.1.15,2013-05-14 17:44:00,
2013-05-14 13:49:00,57.1,31.7,30.12,SSE,166,2.0,2.0,38,0.00,,,0.00,993,Wunderground v.1.15,2013-05-14 17:49:00,
2013-05-14 13:54:00,57.6,29.4,30.13,West,262,2.0,3.0,34,0.00,,,0.00,972,Wunderground v.1.15,2013-05-14 17:54:00,
2013-05-14 14:00:00,58.3,33.4,30.12,NNW,333,2.0,3.0,39,0.00,,,0.00,831,Wunderground v.1.15,2013-05-14 18:00:00,
2013-05-14 14:10:00,58.6,32.4,30.12,SW,216,1.0,1.0,37,0.00,,,0.00,432,Wunderground v.1.15,2013-05-14 18:10:00,
2013-05-14 14:19:00,58.4,30.1,30.12,SE,138,3.0,3.0,34,0.00,,,0.00,712,Wunderground v.1.15,2013-05-14 18:19:00,
2013-05-14 14:29:00,57.8,28.1,30.12,South,187,3.0,3.0,32,0.00,,,0.00,731,Wunderground v.1.15,2013-05-14 18:29:00,
2013-05-14 14:39:00,58.2,30.7,30.12,West,270,2.0,2.0,35,0.00,,,0.00,758,Wunderground v.1.15,2013-05-14 18:39:00,
2013-05-14 14:49:00,58.2,31.3,30.11,West,276,2.0,2.0,36,0.00,,,0.00,439,Wunderground v.1.15,2013-05-14 18:49:00,
2013-05-14 14:55:00,58.6,31.0,30.11,ESE,102,3.0,3.0,35,0.00,,,0.00,239,Wunderground v.1.15,2013-05-14 18:55:00,
2013-05-14 15:00:00,58.9,29.8,30.10,NNW,336,3.0,3.0,33,0.00,,,0.00,195,Wunderground v.1.15,2013-05-14 19:00:00,
2013-05-14 15:09:00,58.7,28.9,30.11,South,175,3.0,4.0,32,0.00,,,0.00,162,Wunderground v.1.15,2013-05-14 19:09:00,
2013-05-14 15:20:00,58.0,31.2,30.10,WNW,285,1.0,2.0,36,0.00,,,0.00,118,Wunderground v.1.15,2013-05-14 19:20:00,
2013-05-14 15:30:00,58.0,27.5,30.10,NW,326,3.0,3.0,31,0.00,,,0.00,125,Wunderground v.1.15,2013-05-14 19:30:00,
2013-05-14 15:40:00,58.2,29.2,30.09,West,279,2.0,2.0,33,0.00,,,0.00,98,Wunderground v.1.15,2013-05-14 19:40:00,
2013-05-14 15:49:00,58.4,29.4,30.09,SW,215,2.0,3.0,33,0.00,,,0.00,114,Wunderground v.1.15,2013-05-14 19:49:00,
2013-05-14 15:55:00,58.3,29.3,30.09,WNW,288,3.0,5.0,33,0.00,,,0.00,83,Wunderground v.1.15,2013-05-14 19:55:00,
2013-05-14 16:04:00,58.5,28.7,30.09,West,267,3.0,5.0,32,0.00,,,0.00,77,Wunderground v.1.15,2013-05-14 20:04:00,
2013-05-14 16:09:00,58.6,28.8,30.09,WNW,300,2.0,2.0,32,0.00,,,0.00,76,Wunderground v.1.15,2013-05-14 20:09:00,
2013-05-14 16:19:00,59.0,30.6,30.09,NW,304,1.0,5.0,34,0.00,,,0.00,65,Wunderground v.1.15,2013-05-14 20:19:00,
2013-05-14 16:30:00,59.1,29.2,30.08,WSW,256,2.0,2.0,32,0.00,,,0.00,63,Wunderground v.1.15,2013-05-14 20:30:00,
2013-05-14 16:40:00,59.1,30.0,30.08,WSW,240,1.0,4.0,33,0.00,,,0.00,60,Wunderground v.1.15,2013-05-14 20:40:00,
2013-05-14 16:49:00,59.1,30.0,30.07,NNW,329,2.0,2.0,33,0.00,,,0.00,58,Wunderground v.1.15,2013-05-14 20:49:00,
2013-05-14 16:55:00,59.3,30.2,30.08,WNW,298,3.0,5.0,33,0.00,,,0.00,56,Wunderground v.1.15,2013-05-14 20:55:00,
2013-05-14 17:05:00,59.4,31.7,30.07,NW,305,3.0,4.0,35,0.00,,,0.00,56,Wunderground v.1.15,2013-05-14 21:05:00,
2013-05-14 17:15:00,59.5,28.8,30.07,SW,223,3.0,3.0,31,0.00,,,0.00,60,Wunderground v.1.15,2013-05-14 21:15:00,
2013-05-14 17:25:00,59.4,29.5,30.07,NW,309,3.0,3.0,32,0.00,,,0.00,46,Wunderground v.1.15,2013-05-14 21:25:00,
2013-05-14 17:34:00,59.4,28.7,30.07,West,276,3.0,3.0,31,0.00,,,0.00,51,Wunderground v.1.15,2013-05-14 21:34:00,
2013-05-14 17:40:00,59.3,28.6,30.07,WSW,253,3.0,5.0,31,0.00,,,0.00,42,Wunderground v.1.15,2013-05-14 21:40:00,
2013-05-14 17:50:00,59.1,30.0,30.07,WNW,290,3.0,3.0,33,0.00,,,0.00,40,Wunderground v.1.15,2013-05-14 21:50:00,
2013-05-14 18:00:00,58.8,28.2,30.07,SW,222,3.0,4.0,31,0.00,,,0.00,37,Wunderground v.1.15,2013-05-14 22:00:00,
2013-05-14 18:09:00,58.8,30.5,30.07,WNW,290,2.0,5.0,34,0.00,,,0.00,33,Wunderground v.1.15,2013-05-14 22:09:00,
2013-05-14 18:15:00,58.9,30.6,30.07,SSW,202,2.0,5.0,34,0.00,,,0.00,32,Wunderground v.1.15,2013-05-14 22:15:00,
2013-05-14 18:25:00,58.8,31.2,30.07,WSW,243,2.0,2.0,35,0.00,,,0.00,30,Wunderground v.1.15,2013-05-14 22:25:00,
2013-05-14 18:35:00,58.6,29.6,30.07,WSW,242,2.0,3.0,33,0.00,,,0.00,26,Wunderground v.1.15,2013-05-14 22:35:00,
2013-05-14 18:44:00,58.2,29.9,30.07,SSW,194,1.0,3.0,34,0.00,,,0.00,23,Wunderground v.1.15,2013-05-14 22:44:00,
2013-05-14 18:49:00,58.2,30.7,30.07,WSW,253,1.0,3.0,35,0.00,,,0.00,21,Wunderground v.1.15,2013-05-14 22:49:00,
2013-05-14 18:55:00,58.2,29.9,30.07,South,169,1.0,3.0,34,0.00,,,0.00,21,Wunderground v.1.15,2013-05-14 22:55:00,
2013-05-14 19:05:00,57.9,30.4,30.07,West,274,1.0,2.0,35,0.00,,,0.00,18,Wunderground v.1.15,2013-05-14 23:05:00,
2013-05-14 19:14:00,57.7,30.2,30.07,WSW,246,2.0,2.0,35,0.00,,,0.00,16,Wunderground v.1.15,2013-05-14 23:14:00,
2013-05-14 19:20:00,57.5,30.7,30.07,SW,235,1.0,2.0,36,0.00,,,0.00,14,Wunderground v.1.15,2013-05-14 23:20:00,
2013-05-14 19:34:00,57.0,30.3,30.07,WSW,247,0.0,5.0,36,0.00,,,0.00,9,Wunderground v.1.15,2013-05-14 23:34:00,
2013-05-14 19:39:00,56.8,30.8,30.07,SW,223,1.0,5.0,37,0.00,,,0.00,7,Wunderground v.1.15,2013-05-14 23:39:00,
2013-05-14 19:45:00,56.6,33.2,30.07,SW,234,1.0,1.0,41,0.00,,,0.00,5,Wunderground v.1.15,2013-05-14 23:45:00,
2013-05-14 19:54:00,55.9,37.0,30.07,SW,233,0.0,0.0,49,0.00,,,0.00,0,Wunderground v.1.15,2013-05-14 23:54:00,
2013-05-14 20:00:00,55.4,36.5,30.06,SW,233,0.0,0.0,49,0.00,,,0.00,0,Wunderground v.1.15,2013-05-15 00:00:00,
2013-05-14 20:10:00,54.4,35.1,30.06,SW,233,0.0,0.0,48,0.00,,,0.00,0,Wunderground v.1.15,2013-05-15 00:10:00,
2013-05-14 20:20:00,53.2,34.0,30.06,SW,233,0.0,0.0,48,0.00,,,0.00,0,Wunderground v.1.15,2013-05-15 00:20:00,
2013-05-14 20:29:00,52.2,34.1,30.06,SW,233,0.0,0.0,50,0.00,,,0.00,0,Wunderground v.1.15,2013-05-15 00:29:00,
2013-05-14 20:35:00,51.6,34.0,30.06,SW,233,0.0,0.0,51,0.00,,,0.00,0,Wunderground v.1.15,2013-05-15 00:35:00,
2013-05-14 20:45:00,50.4,33.4,30.07,SW,233,0.0,0.0,52,0.00,,,0.00,0,Wunderground v.1.15,2013-05-15 00:45:00,
2013-05-14 20:50:00,49.9,33.9,30.07,SW,233,0.0,0.0,54,0.00,,,0.00,0,Wunderground v.1.15,2013-05-15 00:50:00,
2013-05-14 20:59:00,48.9,34.3,30.07,SW,233,0.0,0.0,57,0.00,,,0.00,0,Wunderground v.1.15,2013-05-15 00:59:00,
2013-05-14 21:04:00,48.5,33.1,30.07,SW,233,0.0,0.0,55,0.00,,,0.00,0,Wunderground v.1.15,2013-05-15 01:04:00,
2013-05-14 21:10:00,47.9,33.8,30.08,SW,233,0.0,0.0,58,0.00,,,0.00,0,Wunderground v.1.15,2013-05-15 01:10:00,
2013-05-14 21:19:00,46.9,32.9,30.08,SW,233,0.0,0.0,58,0.00,,,0.00,0,Wunderground v.1.15,2013-05-15 01:19:00,
2013-05-14 21:25:00,46.4,33.3,30.08,SW,233,0.0,0.0,60,0.00,,,0.00,0,Wunderground v.1.15,2013-05-15 01:25:00,
2013-05-14 21:35:00,45.8,34.3,30.08,SW,233,0.0,0.0,64,0.00,,,0.00,0,Wunderground v.1.15,2013-05-15 01:35:00,
2013-05-14 21:44:00,45.3,35.0,30.09,SW,233,0.0,0.0,67,0.00,,,0.00,0,Wunderground v.1.15,2013-05-15 01:44:00,
2013-05-14 21:49:00,45.0,35.1,30.09,SW,233,0.0,0.0,68,0.00,,,0.00,0,Wunderground v.1.15,2013-05-15 01:49:00,
2013-05-14 21:54:00,44.8,35.2,30.09,SW,233,0.0,0.0,69,0.00,,,0.00,0,Wunderground v.1.15,2013-05-15 01:54:00,
2013-05-14 22:05:00,44.3,35.5,30.09,SW,233,0.0,0.0,71,0.00,,,0.00,0,Wunderground v.1.15,2013-05-15 02:05:00,
2013-05-14 22:14:00,43.7,36.0,30.10,SW,233,0.0,0.0,74,0.00,,,0.00,0,Wunderground v.1.15,2013-05-15 02:14:00,
2013-05-14 22:20:00,43.4,36.0,30.10,SW,233,0.0,0.0,75,0.00,,,0.00,0,Wunderground v.1.15,2013-05-15 02:20:00,
2013-05-14 22:30:00,42.9,36.2,30.10,SW,233,0.0,0.0,77,0.00,,,0.00,0,Wunderground v.1.15,2013-05-15 02:30:00,
2013-05-14 22:44:00,42.2,35.8,30.10,SW,233,0.0,0.0,78,0.00,,,0.00,0,Wunderground v.1.15,2013-05-15 02:44:00,
2013-05-14 22:50:00,42.0,35.6,30.10,SW,233,0.0,0.0,78,0.00,,,0.00,0,Wunderground v.1.15,2013-05-15 02:50:00,
2013-05-14 23:00:00,41.8,35.8,30.10,SW,233,0.0,0.0,79,0.00,,,0.00,0,Wunderground v.1.15,2013-05-15 03:00:00,
2013-05-14 23:10:00,41.7,36.0,30.09,SW,233,0.0,0.0,80,0.00,,,0.00,0,Wunderground v.1.15,2013-05-15 03:10:00,
2013-05-14 23:24:00,42.0,36.9,30.10,SW,233,0.0,0.0,82,0.00,,,0.00,0,Wunderground v.1.15,2013-05-15 03:24:00,
2013-05-14 23:35:00,42.3,37.5,30.09,SW,233,0.0,0.0,83,0.00,,,0.00,0,Wunderground v.1.15,2013-05-15 03:35:00,
2013-05-14 23:45:00,42.5,37.7,30.09,SW,233,0.0,0.0,83,0.00,,,0.00,0,Wunderground v.1.15,2013-05-15 03:45:00,
2013-05-14 23:54:00,42.7,37.6,30.10,SW,233,0.0,0.0,82,0.00,,,0.00,0,Wunderground v.1.15,2013-05-15 03:54:00,